Dorchester, MA (02122)

12:24 PM EDT on August 27, 2014 (GMT -0400)
Dorchester | Change Station
CLOSE
Current Station
Personal Weather Station
Location: Quincy, MA
Elevation: 85 ft
Nearby Weather Stations

Elev 85 ft 42.31 °N, 71.07 °W | Updated 10 seconds ago

Partly Cloudy
Partly Cloudy
86.7 °F
Feels Like 90 °F
N
4.0
Wind Variable Wind from SW
Gusts 0.0 mph

Today
High -- | Low -- °F
--% Chance of Precip.
Yesterday
High -- | Low -- °F
Precip. -- in
6:04 AM 7:26 PM
Waxing Crescent, 4% visible
Pressure 29.92 in
Visibility 10.0 miles
Clouds Few 25000 ft
Heat Index 90 °F
Dew Point 68 °F
Humidity 53%
Rainfall 0.00 in
Snow Depth Not available.
UV 8 out of 12
Pollen 10.20 out of 12
Ozone Good
PM2.5 Moderate
Flu Activity Not available.
METAR KBOS 271554Z 23012KT 10SM FEW250 31/18 A2992 RMK AO2 SLP131 T03060178

More Conditions Fewer Conditions

Pressure 29.92 in
Visibility 10.0 miles
Clouds Few 25000 ft
Heat Index 90 °F
Dew Point 68 °F
Humidity 53%
Rainfall 0.00 in
Snow Depth Not available.
UV 8 out of 12
Pollen 10.20 out of 12
Ozone Good
PM2.5 Moderate
Flu Activity Not available.
METAR KBOS 271554Z 23012KT 10SM FEW250 31/18 A2992 RMK AO2 SLP131 T03060178

More Conditions Fewer Conditions

10-Day Weather Forecast

Almanac

Astronomy

Aug. 27, 2014 Rise Set
Actual Time 6:04 AM EDT 7:26 PM EDT
Civil Twilight 5:34 AM EDT 7:55 PM EDT
Nautical Twilight 4:59 AM EDT 8:30 PM EDT
Astronomical Twilight 4:22 AM EDT 9:07 PM EDT
Moon 8:00 AM EDT 8:13 PM EDT
Length of Visible Light 14h 20m
Length of Day
13h 22m
Tomorrow will be 2m 41s shorter.
Waxing Crescent, 4% of the Moon is Illuminated
Today
Waxing Crescent
Sep 2
First Quarter
Sep 8
Full
Sep 15
Last Quarter
Sep 24
New

Today's Extremes

State Highs State Lows

Community

WunderPhotos

Upload Photos

1,747,724 photos uploaded!

Nearby

Air Quality

  Air Quality AQ Index Pollutant
Yesterday Good
PM2.5
Yesterday Good
OZONE
Current Moderate
PM2.5
Current Good
OZONE
Wednesday Moderate
PM2.5
Wednesday Moderate
OZONE

Snow Depth

Station Depth Elevation
No new snow has been reported.

Earthquake Activity

City Distance Mag. Time & Date
No recent earthquake activity has been reported nearby.
Minimum magnitude displayed is 2.5.

Coastal Water Temperatures

Place Temperature
Boston, MA 66.9 °F
Providence, RI 72.0 °F
Fall River, MA 73.0 °F
Conimicut Light, RI 72.0 °F

Nearby Weather Stations